Time;durP1;ratioP1;P1;durP2;ratioP2;P2;SDS_P1;SDS_P2;PMS_P1;PMS_P2;Temp;Humidity;BMP_temperature;BMP_pressure;BME280_temperature;BME280_humidity;BME280_pressure;Samples;Min_cycle;Max_cycle;Signal;HPM_P1;HPM_P2
2022/12/31 00:01:08;;;;;;;0.40;0.20;;;12.30;99.90;;;;;;5095547;28;20447;-60
2022/12/31 00:03:35;;;;;;;0.43;0.20;;;12.30;99.90;;;;;;5096843;28;20464;-59
2022/12/31 00:06:11;;;;;;;0.40;0.20;;;12.30;99.90;;;;;;5097359;28;20500;-59
2022/12/31 00:08:40;;;;;;;0.32;0.20;;;12.30;99.90;;;;;;5096534;28;20461;-59
2022/12/31 00:11:07;;;;;;;0.40;0.10;;;12.30;99.90;;;;;;5094764;28;20743;-59
2022/12/31 00:13:34;;;;;;;0.40;0.20;;;12.40;99.90;;;;;;5094079;28;20974;-60
2022/12/31 00:16:07;;;;;;;0.40;0.20;;;12.30;99.90;;;;;;5094702;28;20520;-60
2022/12/31 00:18:35;;;;;;;0.40;0.20;;;12.30;99.90;;;;;;5092619;28;20472;-59
2022/12/31 00:21:05;;;;;;;0.40;0.20;;;12.30;99.90;;;;;;5096100;28;20501;-60
2022/12/31 00:23:33;;;;;;;1.10;0.20;;;12.30;99.90;;;;;;5094770;28;20424;-60
2022/12/31 00:26:05;;;;;;;0.40;0.20;;;12.30;99.90;;;;;;5096884;28;20508;-59
2022/12/31 00:28:34;;;;;;;0.40;0.20;;;12.30;99.90;;;;;;5095801;28;20425;-59
2022/12/31 00:31:07;;;;;;;0.30;0.20;;;12.30;99.90;;;;;;5096542;28;20450;-59
2022/12/31 00:33:34;;;;;;;0.40;0.20;;;12.30;99.90;;;;;;5096554;28;20465;-59
2022/12/31 00:36:06;;;;;;;0.70;0.20;;;12.30;99.90;;;;;;5095094;28;20426;-60
2022/12/31 00:38:33;;;;;;;1.02;0.20;;;12.40;99.90;;;;;;5095799;28;20952;-60
2022/12/31 00:41:01;;;;;;;0.45;0.22;;;12.50;99.90;;;;;;5096440;28;20483;-60
2022/12/31 00:43:29;;;;;;;0.40;0.20;;;12.50;99.90;;;;;;5096783;28;20517;-60
2022/12/31 00:45:56;;;;;;;1.23;0.20;;;12.50;99.90;;;;;;5096485;28;20933;-59
2022/12/31 00:48:24;;;;;;;0.50;0.20;;;12.50;99.90;;;;;;5097039;28;20834;-57
2022/12/31 00:50:53;;;;;;;0.30;0.20;;;12.50;99.90;;;;;;5093304;28;20895;-59
2022/12/31 00:53:21;;;;;;;0.30;0.10;;;12.60;99.90;;;;;;5093108;28;20409;-58
2022/12/31 00:55:48;;;;;;;0.40;0.20;;;12.60;99.90;;;;;;5092999;28;20526;-57
2022/12/31 00:58:15;;;;;;;0.40;0.20;;;12.60;99.90;;;;;;5093242;28;20429;-59
2022/12/31 01:00:44;;;;;;;0.40;0.20;;;12.70;99.90;;;;;;5093841;28;20517;-57
2022/12/31 01:03:11;;;;;;;0.70;0.20;;;12.70;99.90;;;;;;5094027;28;20528;-58
2022/12/31 01:05:39;;;;;;;0.40;0.20;;;12.90;99.90;;;;;;5094617;28;20619;-57
2022/12/31 01:08:06;;;;;;;1.20;0.20;;;13.10;99.90;;;;;;5096104;28;20812;-58
2022/12/31 01:13:18;;;;;;;0.30;0.10;;;13.20;99.90;;;;;;5096406;28;20438;-57
2022/12/31 01:15:47;;;;;;;0.40;0.20;;;13.20;99.90;;;;;;5096841;28;20504;-58
2022/12/31 01:18:14;;;;;;;0.40;0.20;;;13.30;99.90;;;;;;5097049;28;20509;-58
2022/12/31 01:20:43;;;;;;;0.70;0.20;;;13.20;99.90;;;;;;5096233;28;20509;-58
2022/12/31 01:23:11;;;;;;;0.40;0.20;;;13.20;99.90;;;;;;5095932;28;20839;-58
2022/12/31 01:25:40;;;;;;;0.50;0.10;;;13.30;99.90;;;;;;5095736;28;20512;-58
2022/12/31 01:28:09;;;;;;;0.30;0.20;;;13.30;99.90;;;;;;5096233;28;20950;-58
2022/12/31 01:30:39;;;;;;;0.40;0.20;;;13.50;99.90;;;;;;5096241;28;20418;-59
2022/12/31 01:33:07;;;;;;;0.50;0.20;;;13.60;99.90;;;;;;5095558;28;20426;-59
2022/12/31 01:35:37;;;;;;;0.40;0.20;;;13.50;99.90;;;;;;5096360;28;20496;-59
2022/12/31 01:38:04;;;;;;;0.40;0.20;;;13.60;99.90;;;;;;5096261;28;20486;-59
2022/12/31 01:40:36;;;;;;;0.40;0.20;;;13.60;99.90;;;;;;5096209;28;20512;-59
2022/12/31 01:43:12;;;;;;;0.30;0.20;;;13.60;99.90;;;;;;5095727;28;20483;-59
2022/12/31 01:45:42;;;;;;;0.40;0.20;;;13.60;99.90;;;;;;5095200;28;20513;-59
2022/12/31 01:48:13;;;;;;;0.40;0.20;;;13.60;99.90;;;;;;5093520;28;20830;-59
2022/12/31 01:50:42;;;;;;;0.60;0.20;;;13.60;99.90;;;;;;5093581;28;20445;-59
2022/12/31 01:53:11;;;;;;;0.50;0.20;;;13.60;99.90;;;;;;5094394;28;20458;-59
2022/12/31 01:55:45;;;;;;;0.35;0.10;;;13.60;99.90;;;;;;5095214;28;20413;-59
2022/12/31 01:58:15;;;;;;;0.40;0.20;;;13.60;99.90;;;;;;5095602;28;20532;-59
2022/12/31 02:00:44;;;;;;;0.50;0.20;;;13.60;99.90;;;;;;5094450;28;20492;-59
2022/12/31 02:03:13;;;;;;;0.32;0.10;;;13.60;99.90;;;;;;5093892;28;20453;-59
2022/12/31 02:05:47;;;;;;;0.40;0.20;;;13.60;99.90;;;;;;5094690;28;20884;-59
2022/12/31 02:08:14;;;;;;;0.30;0.15;;;13.60;99.90;;;;;;5095128;28;20457;-59
2022/12/31 02:10:42;;;;;;;1.00;0.20;;;13.50;99.90;;;;;;5095342;28;20503;-59
2022/12/31 02:13:09;;;;;;;0.40;0.20;;;13.40;99.90;;;;;;5095356;28;20433;-59
2022/12/31 02:15:47;;;;;;;0.40;0.20;;;13.50;99.90;;;;;;5095353;28;20501;-59
2022/12/31 02:18:24;;;;;;;0.50;0.20;;;13.50;99.90;;;;;;5093960;28;20508;-59
2022/12/31 02:21:12;;;;;;;0.40;0.20;;;13.50;99.90;;;;;;5094642;28;20442;-58
2022/12/31 02:24:02;;;;;;;0.70;0.30;;;13.40;99.90;;;;;;5094948;28;20464;-58
2022/12/31 02:26:49;;;;;;;0.40;0.20;;;13.40;99.90;;;;;;5094905;28;20505;-59
2022/12/31 02:29:58;;;;;;;0.40;0.20;;;13.40;99.90;;;;;;5094206;28;20472;-59
2022/12/31 02:32:32;;;;;;;0.50;0.20;;;13.30;99.90;;;;;;5094855;28;20790;-59
2022/12/31 02:35:07;;;;;;;0.40;0.20;;;13.40;99.90;;;;;;5094707;28;20734;-59
2022/12/31 02:37:38;;;;;;;0.50;0.20;;;13.40;99.90;;;;;;5092721;28;20527;-59
2022/12/31 02:40:10;;;;;;;0.40;0.20;;;13.40;99.90;;;;;;5094218;28;20840;-59
2022/12/31 02:42:37;;;;;;;0.30;0.20;;;13.40;99.90;;;;;;5093718;28;20501;-58
2022/12/31 02:45:06;;;;;;;0.40;0.20;;;13.40;99.90;;;;;;5094184;28;20460;-59
2022/12/31 02:47:47;;;;;;;0.30;0.20;;;13.30;99.90;;;;;;5094204;28;20821;-58
2022/12/31 02:50:29;;;;;;;0.77;0.20;;;13.40;99.90;;;;;;5093883;28;20449;-59
2022/12/31 02:53:08;;;;;;;0.40;0.20;;;13.40;99.90;;;;;;5094447;28;20511;-59
2022/12/31 02:55:43;;;;;;;0.70;0.10;;;13.50;99.90;;;;;;5094445;28;20509;-59
2022/12/31 02:58:17;;;;;;;0.40;0.20;;;13.40;99.90;;;;;;5094153;28;20516;-59
2022/12/31 03:03:37;;;;;;;0.95;0.20;;;13.40;99.90;;;;;;5093617;28;20851;-59
2022/12/31 03:06:07;;;;;;;0.40;0.20;;;13.50;99.90;;;;;;5093823;28;20848;-59
2022/12/31 03:09:11;;;;;;;0.70;0.20;;;13.60;99.90;;;;;;5093911;28;20528;-59
2022/12/31 03:14:02;;;;;;;0.50;0.20;;;13.70;99.90;;;;;;5092835;28;20408;-59
2022/12/31 03:16:29;;;;;;;0.70;0.20;;;13.70;99.90;;;;;;5094509;28;20799;-59
2022/12/31 03:27:11;;;;;;;0.30;0.20;;;14.00;99.90;;;;;;5093076;28;20413;-59
2022/12/31 03:29:38;;;;;;;0.60;0.20;;;14.00;99.90;;;;;;5093194;28;20786;-60
2022/12/31 03:32:06;;;;;;;0.40;0.20;;;14.10;99.90;;;;;;5093003;28;20500;-59
2022/12/31 03:34:34;;;;;;;0.50;0.20;;;14.20;99.90;;;;;;5094059;28;20480;-59
2022/12/31 03:37:01;;;;;;;0.60;0.20;;;14.20;99.90;;;;;;5094688;28;20489;-59
2022/12/31 03:39:29;;;;;;;0.30;0.20;;;14.30;99.90;;;;;;5094231;28;20461;-59
2022/12/31 03:41:56;;;;;;;0.80;0.20;;;14.30;99.90;;;;;;5094481;28;20917;-60
2022/12/31 03:44:23;;;;;;;0.40;0.20;;;14.40;99.90;;;;;;5094455;28;20449;-59
2022/12/31 03:46:50;;;;;;;0.40;0.20;;;14.50;99.90;;;;;;5094183;28;20492;-59
2022/12/31 03:49:18;;;;;;;0.40;0.20;;;14.50;99.90;;;;;;5094258;28;21060;-59
2022/12/31 03:51:46;;;;;;;0.40;0.20;;;14.50;99.90;;;;;;5093468;28;20970;-59
2022/12/31 03:54:13;;;;;;;0.40;0.20;;;14.60;99.90;;;;;;5093247;28;20475;-59
2022/12/31 03:56:41;;;;;;;0.38;0.20;;;14.60;99.90;;;;;;5092612;28;20500;-59
2022/12/31 03:59:08;;;;;;;0.50;0.20;;;14.70;99.90;;;;;;5093042;28;20421;-59
2022/12/31 04:01:35;;;;;;;0.30;0.20;;;14.70;99.90;;;;;;5092970;28;20498;-60
2022/12/31 04:04:02;;;;;;;0.30;0.20;;;14.60;99.90;;;;;;5092735;28;20524;-59
2022/12/31 04:06:30;;;;;;;0.38;0.20;;;14.70;99.90;;;;;;5093013;28;20472;-59
2022/12/31 04:08:58;;;;;;;0.82;0.20;;;14.70;99.90;;;;;;5094025;28;20876;-59
2022/12/31 04:11:25;;;;;;;0.40;0.20;;;14.80;99.90;;;;;;5093648;28;20508;-58
2022/12/31 04:13:53;;;;;;;0.40;0.20;;;14.80;99.90;;;;;;5094097;28;20516;-59
2022/12/31 04:16:20;;;;;;;0.40;0.20;;;14.80;99.90;;;;;;5093195;28;20465;-60
2022/12/31 04:18:47;;;;;;;0.30;0.10;;;14.80;99.90;;;;;;5093609;28;20454;-59
2022/12/31 04:21:14;;;;;;;0.32;0.20;;;14.80;99.90;;;;;;5094376;28;20554;-59
2022/12/31 04:23:41;;;;;;;0.40;0.20;;;14.90;99.90;;;;;;5094540;28;20516;-58
2022/12/31 04:26:10;;;;;;;0.40;0.20;;;14.90;99.90;;;;;;5097943;28;20457;-59
2022/12/31 04:28:37;;;;;;;0.47;0.20;;;14.90;99.90;;;;;;5097797;28;20429;-58
2022/12/31 04:31:05;;;;;;;0.30;0.20;;;14.90;99.90;;;;;;5097351;28;20521;-59
2022/12/31 04:33:32;;;;;;;0.30;0.20;;;14.90;99.90;;;;;;5096963;28;20551;-59
2022/12/31 04:36:01;;;;;;;0.90;0.10;;;14.90;99.90;;;;;;5090100;28;20513;-59
2022/12/31 04:38:29;;;;;;;0.50;0.10;;;14.90;99.90;;;;;;5077382;28;20428;-60
2022/12/31 04:43:43;;;;;;;0.60;0.20;;;14.90;99.90;;;;;;5076962;28;20434;-60
2022/12/31 04:46:10;;;;;;;0.40;0.10;;;14.80;99.90;;;;;;5063256;28;20468;-59
2022/12/31 04:48:38;;;;;;;0.35;0.20;;;14.80;99.90;;;;;;5056534;28;20780;-59
2022/12/31 04:51:05;;;;;;;0.40;0.17;;;14.90;99.90;;;;;;5057541;28;20518;-60
2022/12/31 04:53:33;;;;;;;0.40;0.20;;;14.80;99.90;;;;;;5056829;28;20512;-59
2022/12/31 04:56:00;;;;;;;0.30;0.20;;;14.80;99.90;;;;;;5074128;28;20517;-59
2022/12/31 04:58:27;;;;;;;0.40;0.20;;;14.80;99.90;;;;;;5075961;28;20806;-59
2022/12/31 05:00:56;;;;;;;0.77;0.43;;;14.80;99.90;;;;;;5075857;28;20850;-59
2022/12/31 05:03:26;;;;;;;0.80;0.20;;;14.80;99.90;;;;;;5069383;28;20536;-59
2022/12/31 05:05:53;;;;;;;0.40;0.20;;;14.80;99.90;;;;;;5055163;28;20480;-59
2022/12/31 05:08:21;;;;;;;0.40;0.20;;;14.70;99.90;;;;;;5055596;28;20527;-59
2022/12/31 05:10:49;;;;;;;0.50;0.20;;;14.60;99.90;;;;;;5055399;28;20516;-59
2022/12/31 05:13:17;;;;;;;0.40;0.20;;;14.50;99.90;;;;;;5066765;28;20461;-59
2022/12/31 05:15:45;;;;;;;1.90;0.20;;;14.50;99.90;;;;;;5086481;28;20449;-59
2022/12/31 05:18:14;;;;;;;1.05;0.30;;;14.40;99.90;;;;;;5096484;28;20512;-59
2022/12/31 05:20:41;;;;;;;0.50;0.20;;;14.40;99.90;;;;;;5094614;28;21084;-58
2022/12/31 05:23:09;;;;;;;0.40;0.20;;;14.40;99.90;;;;;;5095440;28;20520;-59
2022/12/31 05:25:36;;;;;;;0.40;0.20;;;14.50;99.90;;;;;;5095268;28;20457;-59
2022/12/31 05:28:04;;;;;;;0.40;0.20;;;14.50;99.90;;;;;;5093316;28;21030;-58
2022/12/31 05:30:31;;;;;;;0.30;0.20;;;14.50;99.90;;;;;;5094074;28;20952;-58
2022/12/31 05:32:58;;;;;;;0.40;0.20;;;14.50;99.90;;;;;;5094142;28;20491;-59
2022/12/31 05:35:27;;;;;;;0.40;0.20;;;14.60;99.90;;;;;;5093754;28;20501;-59
2022/12/31 05:37:54;;;;;;;0.40;0.20;;;14.50;99.90;;;;;;5094220;28;20520;-59
2022/12/31 05:40:22;;;;;;;1.10;0.20;;;14.40;99.90;;;;;;5096731;28;20452;-59
2022/12/31 05:42:50;;;;;;;0.30;0.20;;;14.30;99.90;;;;;;5096247;28;20441;-59
2022/12/31 05:45:18;;;;;;;0.68;0.20;;;14.20;99.90;;;;;;5095297;28;20421;-59
2022/12/31 05:47:46;;;;;;;0.40;0.20;;;14.10;99.90;;;;;;5095725;28;20436;-58
2022/12/31 05:50:15;;;;;;;0.40;0.20;;;14.10;99.90;;;;;;5095473;28;20532;-58
2022/12/31 05:52:44;;;;;;;0.30;0.20;;;14.10;99.90;;;;;;5095512;28;20414;-59
2022/12/31 05:55:12;;;;;;;0.30;0.20;;;14.10;99.90;;;;;;5095225;28;20504;-58
2022/12/31 05:57:40;;;;;;;0.40;0.20;;;14.10;99.90;;;;;;5095725;28;20467;-58
2022/12/31 06:00:09;;;;;;;0.40;0.20;;;14.10;99.90;;;;;;5096226;28;20484;-58
2022/12/31 06:02:36;;;;;;;0.75;0.20;;;14.00;99.90;;;;;;5094743;28;20759;-58
2022/12/31 06:05:05;;;;;;;1.05;0.20;;;14.00;99.90;;;;;;5094806;28;20505;-58
2022/12/31 06:07:32;;;;;;;0.43;0.20;;;13.90;99.90;;;;;;5095056;28;20434;-58
2022/12/31 06:10:01;;;;;;;1.08;0.30;;;14.00;99.90;;;;;;5094652;28;21056;-59
2022/12/31 06:12:28;;;;;;;0.80;0.20;;;14.00;99.90;;;;;;5094970;28;20442;-57
2022/12/31 06:14:55;;;;;;;0.40;0.20;;;14.00;99.90;;;;;;5094854;28;20506;-59
2022/12/31 06:17:22;;;;;;;0.30;0.10;;;14.00;99.90;;;;;;5095468;28;20513;-59
2022/12/31 06:19:49;;;;;;;0.30;0.20;;;14.10;99.90;;;;;;5094598;28;20449;-60
2022/12/31 06:22:17;;;;;;;0.60;0.30;;;14.10;99.90;;;;;;5095569;28;20453;-58
2022/12/31 06:24:44;;;;;;;0.40;0.20;;;14.10;99.90;;;;;;5094713;28;20568;-58
2022/12/31 06:27:13;;;;;;;0.40;0.20;;;14.20;99.90;;;;;;5094583;28;20537;-57
2022/12/31 06:29:40;;;;;;;0.40;0.20;;;14.20;99.90;;;;;;5095124;28;20503;-57
2022/12/31 06:32:07;;;;;;;0.30;0.20;;;14.20;99.90;;;;;;5094214;28;20501;-58
2022/12/31 06:34:34;;;;;;;0.40;0.20;;;14.30;99.90;;;;;;5094219;28;20868;-57
2022/12/31 06:37:02;;;;;;;0.90;0.20;;;14.30;99.90;;;;;;5094434;28;20497;-57
2022/12/31 06:39:29;;;;;;;0.43;0.20;;;14.30;99.90;;;;;;5094483;28;20468;-58
2022/12/31 06:41:56;;;;;;;0.30;0.10;;;14.20;99.90;;;;;;5094453;28;20876;-57
2022/12/31 06:44:25;;;;;;;0.50;0.20;;;14.20;99.90;;;;;;5094106;28;20770;-58
2022/12/31 06:46:52;;;;;;;0.70;0.30;;;14.20;99.90;;;;;;5092902;28;20513;-58
2022/12/31 06:49:19;;;;;;;0.50;0.20;;;14.20;99.90;;;;;;5093751;28;20841;-57
2022/12/31 06:51:46;;;;;;;0.40;0.20;;;14.30;99.90;;;;;;5094327;28;20509;-58
2022/12/31 06:54:14;;;;;;;0.40;0.20;;;14.30;99.90;;;;;;5094687;28;20520;-58
2022/12/31 06:56:42;;;;;;;0.40;0.20;;;14.20;99.90;;;;;;5094702;28;20785;-57
2022/12/31 06:59:25;;;;;;;0.50;0.20;;;14.20;99.90;;;;;;5094859;28;20522;-58
2022/12/31 07:02:07;;;;;;;0.80;0.20;;;14.20;99.90;;;;;;5093944;28;20418;-58
2022/12/31 07:05:02;;;;;;;0.50;0.20;;;14.10;99.90;;;;;;5094673;28;20417;-58
2022/12/31 07:07:34;;;;;;;0.60;0.20;;;14.20;99.90;;;;;;5058642;28;20513;-57
2022/12/31 07:10:11;;;;;;;0.70;0.20;;;14.20;99.90;;;;;;5094518;28;20460;-58
2022/12/31 07:12:52;;;;;;;0.30;0.20;;;14.10;99.90;;;;;;5092932;28;20567;-57
2022/12/31 07:15:36;;;;;;;0.40;0.20;;;14.10;99.90;;;;;;5093800;28;20513;-57
2022/12/31 07:18:15;;;;;;;0.50;0.30;;;14.20;99.90;;;;;;5094184;28;20496;-58
2022/12/31 07:20:43;;;;;;;0.40;0.20;;;14.20;99.90;;;;;;5094242;28;20508;-56
2022/12/31 07:23:10;;;;;;;0.40;0.20;;;14.20;99.90;;;;;;5093990;28;20426;-58
2022/12/31 07:25:41;;;;;;;0.40;0.20;;;14.20;99.90;;;;;;5093577;28;20479;-57
2022/12/31 07:28:19;;;;;;;0.40;0.20;;;14.30;99.90;;;;;;5093478;28;20487;-57
2022/12/31 07:30:54;;;;;;;0.70;0.20;;;14.30;99.90;;;;;;5093383;28;20496;-58
2022/12/31 07:33:35;;;;;;;0.50;0.20;;;14.40;99.90;;;;;;5092837;28;20512;-58
2022/12/31 07:36:13;;;;;;;0.40;0.20;;;14.40;99.90;;;;;;5093221;28;20813;-58
2022/12/31 07:38:50;;;;;;;0.40;0.20;;;14.40;99.90;;;;;;5093335;28;20517;-58
2022/12/31 07:41:31;;;;;;;0.40;0.20;;;14.40;99.90;;;;;;5094203;28;20509;-58
2022/12/31 07:44:07;;;;;;;0.40;0.20;;;14.40;99.90;;;;;;5094266;28;20537;-61
2022/12/31 07:46:45;;;;;;;0.50;0.30;;;14.50;99.90;;;;;;5094208;28;20465;-58
2022/12/31 07:49:14;;;;;;;0.30;0.20;;;14.60;99.90;;;;;;5093896;28;20449;-59
2022/12/31 07:51:42;;;;;;;1.10;0.20;;;14.60;99.90;;;;;;5094102;28;20814;-57
2022/12/31 07:54:09;;;;;;;0.70;0.20;;;14.80;99.90;;;;;;5092832;28;20496;-59
2022/12/31 07:56:36;;;;;;;0.40;0.20;;;14.80;99.90;;;;;;5093963;28;20877;-58
2022/12/31 07:59:14;;;;;;;0.40;0.20;;;14.80;99.90;;;;;;5094613;28;20821;-59
2022/12/31 08:01:48;;;;;;;0.40;0.20;;;14.90;99.90;;;;;;5098558;28;20488;-58
2022/12/31 08:04:26;;;;;;;0.40;0.20;;;14.90;99.90;;;;;;5098337;28;20461;-59
2022/12/31 08:07:02;;;;;;;0.40;0.20;;;14.90;99.90;;;;;;5097169;28;20504;-58
2022/12/31 08:09:39;;;;;;;0.50;0.30;;;14.90;99.90;;;;;;5097187;28;20462;-57
2022/12/31 08:12:08;;;;;;;0.60;0.30;;;14.90;99.90;;;;;;5097525;28;20821;-57
2022/12/31 08:14:42;;;;;;;1.20;0.23;;;14.90;99.90;;;;;;5095962;28;20530;-58
2022/12/31 08:17:13;;;;;;;0.50;0.30;;;14.90;99.90;;;;;;5096760;28;20446;-58
2022/12/31 08:19:41;;;;;;;0.80;0.20;;;15.00;99.90;;;;;;5096608;28;20526;-58
2022/12/31 08:22:32;;;;;;;0.40;0.20;;;15.00;99.90;;;;;;5097535;28;20508;-58
2022/12/31 08:25:08;;;;;;;1.13;0.20;;;15.10;99.90;;;;;;5096569;28;20497;-57
2022/12/31 08:27:43;;;;;;;0.30;0.20;;;15.10;99.90;;;;;;5096863;28;20465;-57
2022/12/31 08:30:13;;;;;;;0.47;0.20;;;15.20;99.90;;;;;;5097075;28;20826;-58
2022/12/31 08:32:46;;;;;;;0.77;0.40;;;15.20;99.90;;;;;;5097446;28;20780;-58
2022/12/31 08:35:28;;;;;;;0.60;0.30;;;15.20;99.90;;;;;;5096994;28;20422;-58
2022/12/31 08:38:02;;;;;;;0.40;0.20;;;15.20;99.90;;;;;;5096810;28;20426;-58
2022/12/31 08:40:42;;;;;;;1.30;0.30;;;15.20;99.90;;;;;;5093904;28;20449;-57
2022/12/31 08:43:26;;;;;;;0.60;0.30;;;15.20;99.90;;;;;;5054826;28;20802;-58
2022/12/31 08:45:54;;;;;;;0.50;0.30;;;15.30;99.90;;;;;;5050596;28;20500;-57
2022/12/31 08:48:29;;;;;;;0.40;0.20;;;15.30;99.90;;;;;;5065817;28;20518;-59
2022/12/31 08:50:57;;;;;;;1.52;0.20;;;15.30;99.90;;;;;;5075288;28;20477;-58
2022/12/31 08:53:25;;;;;;;0.70;0.20;;;15.40;99.90;;;;;;5073947;28;20549;-58
2022/12/31 08:55:58;;;;;;;0.40;0.20;;;15.40;99.90;;;;;;5075267;28;20506;-60
2022/12/31 08:58:39;;;;;;;0.60;0.30;;;15.40;99.90;;;;;;5073488;28;20435;-59
2022/12/31 09:01:08;;;;;;;0.40;0.20;;;15.50;99.90;;;;;;5071437;28;20491;-58
2022/12/31 09:03:59;;;;;;;0.40;0.20;;;15.50;99.90;;;;;;5055002;28;20503;-57
2022/12/31 09:06:29;;;;;;;0.50;0.30;;;15.50;99.90;;;;;;5054583;28;20517;-56
2022/12/31 09:09:03;;;;;;;0.40;0.20;;;15.60;99.90;;;;;;5055147;28;20432;-58
2022/12/31 09:11:45;;;;;;;0.60;0.30;;;15.60;99.90;;;;;;5053488;28;20527;-57
2022/12/31 09:14:32;;;;;;;1.00;0.20;;;15.60;99.90;;;;;;5059586;28;20463;-57
2022/12/31 09:17:04;;;;;;;0.30;0.20;;;15.60;99.90;;;;;;5073969;28;20506;-57
2022/12/31 09:19:33;;;;;;;0.40;0.22;;;15.70;99.90;;;;;;5075575;28;20518;-57
2022/12/31 09:22:00;;;;;;;0.50;0.20;;;15.70;99.90;;;;;;5072340;28;21123;-56
2022/12/31 09:24:28;;;;;;;0.50;0.20;;;15.80;99.90;;;;;;5073181;28;20549;-57
2022/12/31 09:27:04;;;;;;;0.50;0.30;;;15.80;99.90;;;;;;5074695;28;20813;-57
2022/12/31 09:29:43;;;;;;;0.40;0.20;;;15.80;99.90;;;;;;5074199;28;20750;-56
2022/12/31 09:32:19;;;;;;;0.40;0.20;;;15.90;99.90;;;;;;5073396;28;20419;-57
2022/12/31 09:34:55;;;;;;;0.50;0.20;;;15.90;99.90;;;;;;5072202;28;20439;-57
2022/12/31 09:37:36;;;;;;;0.32;0.20;;;16.00;99.90;;;;;;5073985;28;20447;-57
2022/12/31 09:40:23;;;;;;;0.30;0.20;;;16.20;99.90;;;;;;5067599;28;20478;-57
2022/12/31 09:43:12;;;;;;;1.20;0.20;;;16.30;99.90;;;;;;5072968;28;20435;-57
2022/12/31 09:46:06;;;;;;;0.40;0.20;;;16.30;99.90;;;;;;5074388;28;20917;-57
2022/12/31 09:49:20;;;;;;;0.40;0.15;;;16.40;99.90;;;;;;5074234;28;20558;-57
2022/12/31 09:51:54;;;;;;;0.60;0.20;;;16.50;99.90;;;;;;5073263;28;20459;-57
2022/12/31 09:54:33;;;;;;;0.60;0.40;;;16.50;99.90;;;;;;5070929;28;20427;-57
2022/12/31 09:57:35;;;;;;;1.00;0.20;;;16.60;99.90;;;;;;5071623;28;20879;-57
2022/12/31 10:00:09;;;;;;;0.50;0.20;;;16.60;99.90;;;;;;5071765;28;20459;-57
2022/12/31 10:03:09;;;;;;;0.80;0.40;;;16.70;99.90;;;;;;5071066;28;20481;-57
2022/12/31 10:05:53;;;;;;;0.40;0.20;;;16.80;99.90;;;;;;5059292;28;20500;-58
2022/12/31 10:08:38;;;;;;;0.40;0.20;;;16.80;99.90;;;;;;5072508;28;20518;-57
2022/12/31 10:11:12;;;;;;;0.40;0.20;;;17.00;99.90;;;;;;5072073;28;20513;-58
2022/12/31 10:13:55;;;;;;;0.40;0.20;;;17.10;99.90;;;;;;5072052;28;20435;-58
2022/12/31 10:16:47;;;;;;;0.30;0.20;;;17.50;99.90;;;;;;5088996;28;20461;-57
2022/12/31 10:19:47;;;;;;;0.30;0.20;;;17.50;99.90;;;;;;5089899;28;20513;-58
2022/12/31 10:22:35;;;;;;;0.50;0.20;;;17.40;99.90;;;;;;5093652;28;20512;-59
2022/12/31 10:25:33;;;;;;;0.40;0.20;;;17.30;99.90;;;;;;5090040;28;20418;-59
2022/12/31 10:28:06;;;;;;;0.40;0.20;;;17.20;99.90;;;;;;5093517;28;20563;-59
2022/12/31 10:30:37;;;;;;;0.40;0.20;;;17.40;99.90;;;;;;5093116;28;20446;-57
2022/12/31 10:33:14;;;;;;;0.50;0.20;;;17.60;99.90;;;;;;5094153;28;20465;-59
2022/12/31 10:35:49;;;;;;;0.60;0.30;;;17.60;99.90;;;;;;5093779;28;20429;-57
2022/12/31 10:38:29;;;;;;;0.40;0.20;;;17.50;99.90;;;;;;5094355;28;20587;-57
2022/12/31 10:41:30;;;;;;;1.10;0.30;;;17.40;99.90;;;;;;5094914;28;20449;-57
2022/12/31 10:44:31;;;;;;;0.40;0.20;;;17.30;99.90;;;;;;5092452;28;20494;-56
2022/12/31 10:47:34;;;;;;;0.40;0.20;;;17.30;99.90;;;;;;5090127;28;20905;-56
2022/12/31 10:50:39;;;;;;;0.40;0.20;;;17.30;99.90;;;;;;5089171;28;20428;-55
2022/12/31 10:53:35;;;;;;;0.70;0.20;;;17.30;99.90;;;;;;5080047;28;20451;-57
2022/12/31 10:56:47;;;;;;;0.40;0.20;;;17.30;99.90;;;;;;5081938;28;20510;-55
2022/12/31 10:59:46;;;;;;;0.60;0.20;;;17.40;99.90;;;;;;5008157;28;20444;-56
2022/12/31 11:02:38;;;;;;;0.40;0.20;;;17.40;99.90;;;;;;5089796;28;20442;-57
2022/12/31 11:05:49;;;;;;;1.08;0.20;;;17.50;99.90;;;;;;5090289;28;20498;-57
2022/12/31 11:08:35;;;;;;;0.40;0.20;;;17.60;99.90;;;;;;5068848;28;20493;-58
2022/12/31 11:11:14;;;;;;;0.30;0.17;;;17.60;99.90;;;;;;5072834;28;20537;-57
2022/12/31 11:14:17;;;;;;;0.40;0.20;;;17.50;99.90;;;;;;5073664;28;20466;-56
2022/12/31 11:17:02;;;;;;;0.40;0.20;;;17.60;99.90;;;;;;5072871;28;20812;-57
2022/12/31 11:19:39;;;;;;;0.80;0.30;;;17.70;99.90;;;;;;5073686;28;20428;-57
2022/12/31 11:22:42;;;;;;;0.50;0.30;;;17.70;99.90;;;;;;5091671;28;20471;-57
2022/12/31 11:25:22;;;;;;;0.60;0.20;;;17.70;99.90;;;;;;5074713;28;20810;-57
2022/12/31 11:28:21;;;;;;;0.30;0.20;;;17.70;99.90;;;;;;5072469;28;20493;-56
2022/12/31 11:31:03;;;;;;;0.32;0.13;;;17.90;99.90;;;;;;5091990;28;20587;-56
2022/12/31 11:33:43;;;;;;;0.40;0.20;;;17.90;99.90;;;;;;5092744;28;20532;-57
2022/12/31 11:36:25;;;;;;;0.40;0.20;;;17.90;99.90;;;;;;5097669;28;21081;-57
2022/12/31 11:38:58;;;;;;;0.40;0.20;;;17.90;99.90;;;;;;5096164;28;20421;-57
2022/12/31 11:41:33;;;;;;;0.30;0.10;;;18.00;99.90;;;;;;5096592;28;20500;-57
2022/12/31 11:44:12;;;;;;;0.40;0.10;;;18.00;99.90;;;;;;5097847;28;20524;-57
2022/12/31 11:46:58;;;;;;;0.70;0.20;;;18.00;99.90;;;;;;5095011;28;20845;-57
2022/12/31 11:49:41;;;;;;;0.70;0.10;;;18.10;99.90;;;;;;5093805;28;20448;-58
2022/12/31 11:52:27;;;;;;;0.40;0.17;;;18.10;99.90;;;;;;5096359;28;20598;-57
2022/12/31 11:55:19;;;;;;;0.40;0.10;;;18.10;99.90;;;;;;5094928;28;20524;-57
2022/12/31 11:57:49;;;;;;;0.40;0.20;;;18.20;99.90;;;;;;5096198;28;20461;-61
2022/12/31 12:00:19;;;;;;;0.40;0.20;;;18.30;99.90;;;;;;5097765;28;20513;-55
2022/12/31 12:02:49;;;;;;;0.30;0.20;;;18.30;99.90;;;;;;5097798;28;20433;-57
2022/12/31 12:05:20;;;;;;;0.60;0.10;;;18.30;99.90;;;;;;5097854;28;20425;-57
2022/12/31 12:07:48;;;;;;;0.40;0.20;;;18.30;99.90;;;;;;5098041;28;20440;-58
2022/12/31 12:10:24;;;;;;;0.88;0.30;;;18.30;99.90;;;;;;5098927;28;20831;-57
2022/12/31 12:12:52;;;;;;;0.75;0.20;;;18.20;99.90;;;;;;5096252;28;20520;-57
2022/12/31 12:15:24;;;;;;;0.60;0.20;;;18.30;99.90;;;;;;5096762;28;20924;-58
2022/12/31 12:17:54;;;;;;;0.50;0.20;;;18.30;99.90;;;;;;5088362;28;20440;-55
2022/12/31 12:20:29;;;;;;;0.40;0.10;;;18.30;99.90;;;;;;5069502;28;20471;-56
2022/12/31 12:22:58;;;;;;;0.30;0.10;;;18.30;99.90;;;;;;5094077;28;20671;-57
2022/12/31 12:25:36;;;;;;;0.40;0.20;;;18.30;99.90;;;;;;5079036;28;20510;-57
2022/12/31 12:28:22;;;;;;;0.40;0.20;;;18.30;99.90;;;;;;5079000;28;20530;-56
2022/12/31 12:30:58;;;;;;;0.30;0.10;;;18.30;99.90;;;;;;5066668;28;20437;-56
2022/12/31 12:33:25;;;;;;;0.30;0.10;;;18.40;99.90;;;;;;5067250;28;20518;-55
2022/12/31 12:35:54;;;;;;;0.30;0.20;;;18.30;99.90;;;;;;5091319;28;20832;-58
2022/12/31 12:38:23;;;;;;;0.40;0.20;;;18.30;99.90;;;;;;5086490;28;20600;-57
2022/12/31 12:40:56;;;;;;;0.70;0.20;;;18.30;99.90;;;;;;5082993;28;20485;-56
2022/12/31 12:43:26;;;;;;;1.27;0.68;;;18.30;99.90;;;;;;5075317;28;20529;-57
2022/12/31 12:45:58;;;;;;;0.47;0.20;;;18.30;99.90;;;;;;5080631;28;20454;-58
2022/12/31 12:48:32;;;;;;;0.90;0.25;;;18.30;99.90;;;;;;5080436;28;20481;-57
2022/12/31 12:51:06;;;;;;;0.50;0.20;;;18.30;99.90;;;;;;5070225;28;20429;-58
2022/12/31 12:53:45;;;;;;;0.50;0.20;;;18.30;99.90;;;;;;5074118;28;20532;-58
2022/12/31 12:56:23;;;;;;;1.80;0.20;;;18.40;99.90;;;;;;5080272;28;20567;-58
2022/12/31 12:59:05;;;;;;;0.60;0.20;;;18.40;99.90;;;;;;5084050;28;20932;-58
2022/12/31 13:01:42;;;;;;;0.40;0.20;;;18.40;99.90;;;;;;5074778;28;20526;-58
2022/12/31 13:04:32;;;;;;;0.40;0.20;;;18.40;99.90;;;;;;5089688;28;20518;-58
2022/12/31 13:07:13;;;;;;;0.40;0.13;;;18.40;99.90;;;;;;5092176;28;20516;-57
2022/12/31 13:10:12;;;;;;;0.40;0.20;;;18.40;99.90;;;;;;5074804;28;20499;-57
2022/12/31 13:12:47;;;;;;;0.40;0.10;;;18.40;99.90;;;;;;5076744;28;20449;-57
2022/12/31 13:15:20;;;;;;;0.50;0.20;;;18.40;99.90;;;;;;5074406;28;20853;-57
2022/12/31 13:17:57;;;;;;;0.30;0.20;;;18.50;99.90;;;;;;5086044;28;20485;-57
2022/12/31 13:20:32;;;;;;;0.30;0.10;;;18.60;99.90;;;;;;5077161;28;20863;-57
2022/12/31 13:23:06;;;;;;;0.40;0.20;;;18.50;99.90;;;;;;5059808;28;20593;-58
2022/12/31 13:25:43;;;;;;;0.40;0.20;;;18.50;99.90;;;;;;5078436;28;20491;-58
2022/12/31 13:28:14;;;;;;;0.38;0.20;;;18.40;99.90;;;;;;5080315;28;20442;-58
2022/12/31 13:30:44;;;;;;;0.40;0.20;;;18.40;99.90;;;;;;5070919;28;20443;-58
2022/12/31 13:33:17;;;;;;;0.40;0.10;;;18.30;99.90;;;;;;5073637;28;20518;-57
2022/12/31 13:35:48;;;;;;;0.30;0.13;;;18.40;99.90;;;;;;5086298;28;20489;-58
2022/12/31 13:38:21;;;;;;;0.40;0.20;;;18.40;99.90;;;;;;5066400;28;20429;-58
2022/12/31 13:40:56;;;;;;;0.40;0.20;;;18.40;99.90;;;;;;5069315;28;20436;-58
2022/12/31 13:43:35;;;;;;;0.40;0.10;;;18.40;99.90;;;;;;5074229;28;20913;-58